Time;durP1;ratioP1;P1;durP2;ratioP2;P2;SDS_P1;SDS_P2;PMS_P1;PMS_P2;Temp;Humidity;BMP_temperature;BMP_pressure;BME280_temperature;BME280_humidity;BME280_pressure;Samples;Min_cycle;Max_cycle;Signal;HPM_P1;HPM_P2
2021/12/11 00:01:49;;;;;;;45.75;28.05;;;2.90;99.90;;;;;;5060748;28;20267;-61
2021/12/11 00:04:21;;;;;;;56.33;30.70;;;2.80;99.90;;;;;;5065740;28;20694;-60
2021/12/11 00:06:53;;;;;;;51.45;28.33;;;2.80;99.90;;;;;;5064031;28;20288;-61
2021/12/11 00:09:26;;;;;;;44.17;26.58;;;2.70;99.90;;;;;;5054277;28;20228;-61
2021/12/11 00:11:59;;;;;;;45.58;25.77;;;2.80;99.90;;;;;;5054358;28;20250;-61
2021/12/11 00:14:30;;;;;;;55.40;32.83;;;2.80;99.90;;;;;;5059282;28;20221;-61
2021/12/11 00:16:58;;;;;;;54.25;27.77;;;2.80;99.90;;;;;;5055534;28;20564;-61
2021/12/11 00:19:30;;;;;;;47.72;29.70;;;2.70;99.90;;;;;;5068534;28;20223;-61
2021/12/11 00:22:06;;;;;;;45.65;28.40;;;2.70;99.90;;;;;;5059943;28;20204;-61
2021/12/11 00:24:36;;;;;;;44.53;26.10;;;2.80;99.90;;;;;;5058306;28;20266;-61
2021/12/11 00:27:09;;;;;;;44.83;26.77;;;2.80;99.90;;;;;;5057127;28;20251;-61
2021/12/11 00:29:38;;;;;;;47.63;28.30;;;2.80;99.90;;;;;;5065565;28;20212;-61
2021/12/11 00:32:12;;;;;;;58.20;30.23;;;2.80;99.90;;;;;;5073578;28;20211;-61
2021/12/11 00:34:43;;;;;;;46.67;27.98;;;2.80;99.90;;;;;;5057143;28;20609;-61
2021/12/11 00:37:14;;;;;;;47.15;28.67;;;2.80;99.90;;;;;;5061721;28;20593;-61
2021/12/11 00:39:50;;;;;;;53.50;28.40;;;2.90;99.90;;;;;;5055468;28;20208;-61
2021/12/11 00:42:22;;;;;;;49.80;29.80;;;2.80;99.90;;;;;;5061572;28;20237;-60
2021/12/11 00:44:53;;;;;;;52.35;29.70;;;2.80;99.90;;;;;;5058198;28;20670;-61
2021/12/11 00:47:26;;;;;;;50.97;28.20;;;2.80;99.90;;;;;;5072322;28;20192;-61
2021/12/11 00:49:57;;;;;;;57.83;29.98;;;2.80;99.90;;;;;;5069348;28;20243;-61
2021/12/11 00:52:39;;;;;;;59.70;29.98;;;2.70;99.90;;;;;;5065288;28;20221;-61
2021/12/11 00:55:16;;;;;;;65.25;32.05;;;2.70;99.90;;;;;;5063101;28;20196;-60
2021/12/11 00:57:48;;;;;;;55.22;30.58;;;2.70;99.90;;;;;;5058108;28;20636;-61
2021/12/11 01:00:21;;;;;;;51.03;29.48;;;2.70;99.90;;;;;;5064854;28;20644;-61
2021/12/11 01:02:53;;;;;;;54.78;31.00;;;2.70;99.90;;;;;;5056245;28;20227;-60
2021/12/11 01:05:23;;;;;;;55.92;31.63;;;2.70;99.90;;;;;;5065744;28;20196;-61
2021/12/11 01:07:53;;;;;;;50.28;28.98;;;2.70;99.90;;;;;;5054172;28;20224;-60
2021/12/11 01:10:25;;;;;;;53.88;32.20;;;2.80;99.90;;;;;;5069649;28;20708;-61
2021/12/11 01:13:01;;;;;;;59.40;30.52;;;2.80;99.90;;;;;;5070500;28;20507;-60
2021/12/11 01:15:32;;;;;;;51.28;27.30;;;2.80;99.90;;;;;;5055409;28;20222;-60
2021/12/11 01:18:21;;;;;;;55.67;28.92;;;2.90;99.90;;;;;;5055815;28;20228;-60
2021/12/11 01:20:57;;;;;;;46.90;28.50;;;2.90;99.90;;;;;;5054234;28;20595;-61
2021/12/11 01:23:45;;;;;;;56.92;32.70;;;2.90;99.90;;;;;;5065228;28;20215;-60
2021/12/11 01:26:17;;;;;;;53.53;30.58;;;2.90;99.90;;;;;;5054403;28;20272;-61
2021/12/11 01:28:46;;;;;;;50.55;29.15;;;2.80;99.90;;;;;;5061915;28;20216;-60
2021/12/11 01:31:17;;;;;;;51.05;29.05;;;2.90;99.90;;;;;;5051815;28;20188;-61
2021/12/11 01:33:46;;;;;;;55.35;30.33;;;2.90;99.90;;;;;;5059181;28;20212;-61
2021/12/11 01:36:14;;;;;;;60.95;30.50;;;2.90;99.90;;;;;;5072097;28;20195;-61
2021/12/11 01:38:44;;;;;;;59.15;33.15;;;2.90;99.90;;;;;;5065518;28;20261;-60
2021/12/11 01:41:17;;;;;;;51.00;27.35;;;2.90;99.90;;;;;;5063428;28;20216;-60
2021/12/11 01:43:50;;;;;;;56.08;27.45;;;3.00;99.90;;;;;;5058233;28;20290;-61
2021/12/11 01:46:21;;;;;;;52.45;29.30;;;3.00;99.90;;;;;;5071780;28;20215;-60
2021/12/11 01:48:53;;;;;;;45.03;27.70;;;3.00;99.90;;;;;;5056501;28;20705;-61
2021/12/11 01:51:25;;;;;;;57.95;30.40;;;3.00;99.90;;;;;;5052914;28;20276;-61
2021/12/11 01:53:59;;;;;;;57.88;30.90;;;3.00;99.90;;;;;;5065025;28;20571;-61
2021/12/11 01:56:31;;;;;;;55.45;27.85;;;3.00;99.90;;;;;;5058786;28;20242;-60
2021/12/11 01:59:05;;;;;;;53.00;30.73;;;3.10;99.90;;;;;;5060714;28;20314;-60
2021/12/11 02:01:41;;;;;;;61.80;30.73;;;3.10;99.90;;;;;;5067356;28;20249;-60
2021/12/11 02:04:11;;;;;;;62.55;30.48;;;3.00;99.90;;;;;;5060559;28;20230;-60
2021/12/11 02:06:42;;;;;;;49.15;28.10;;;3.00;99.90;;;;;;5053901;28;20274;-62
2021/12/11 02:09:18;;;;;;;51.80;28.40;;;3.10;99.90;;;;;;5052715;28;20224;-60
2021/12/11 02:11:48;;;;;;;55.50;29.08;;;3.10;99.90;;;;;;5057355;28;20250;-61
2021/12/11 02:14:25;;;;;;;46.25;28.25;;;3.10;99.90;;;;;;5062580;28;20243;-60
2021/12/11 02:16:54;;;;;;;45.72;28.65;;;3.00;99.90;;;;;;5052184;28;20223;-60
2021/12/11 02:19:29;;;;;;;47.10;28.60;;;3.10;99.90;;;;;;5055036;28;20216;-61
2021/12/11 02:22:08;;;;;;;49.00;27.50;;;3.10;99.90;;;;;;5060509;28;20286;-61
2021/12/11 02:24:40;;;;;;;52.78;28.08;;;3.10;99.90;;;;;;5062461;28;20207;-61
2021/12/11 02:27:12;;;;;;;47.10;27.10;;;3.10;99.90;;;;;;5068355;28;20543;-61
2021/12/11 02:29:43;;;;;;;51.85;28.20;;;3.10;99.90;;;;;;5067100;28;20216;-60
2021/12/11 02:32:19;;;;;;;52.70;29.83;;;3.10;99.90;;;;;;5054294;28;20646;-60
2021/12/11 02:34:54;;;;;;;66.90;29.40;;;3.10;99.90;;;;;;5053618;28;20191;-60
2021/12/11 02:37:29;;;;;;;55.63;30.52;;;3.10;99.90;;;;;;5070002;28;20186;-61
2021/12/11 02:40:04;;;;;;;61.28;30.92;;;3.10;99.90;;;;;;5055558;28;20261;-61
2021/12/11 02:42:40;;;;;;;57.83;30.65;;;3.10;99.90;;;;;;5052648;28;20219;-61
2021/12/11 02:45:15;;;;;;;53.17;30.25;;;3.10;99.90;;;;;;5059461;28;20574;-60
2021/12/11 02:47:47;;;;;;;61.17;30.27;;;3.20;99.90;;;;;;5054254;28;20235;-61
2021/12/11 02:50:20;;;;;;;57.95;28.70;;;3.10;99.90;;;;;;5058751;28;20212;-60
2021/12/11 02:52:53;;;;;;;61.97;30.92;;;3.10;99.90;;;;;;5060856;28;20559;-60
2021/12/11 02:55:29;;;;;;;62.38;31.83;;;3.10;99.90;;;;;;5063786;28;20250;-60
2021/12/11 02:58:01;;;;;;;54.72;28.17;;;3.10;99.90;;;;;;5068087;28;20203;-61
2021/12/11 03:00:33;;;;;;;51.42;27.52;;;3.10;99.90;;;;;;5069112;28;20620;-61
2021/12/11 03:03:06;;;;;;;63.58;29.52;;;3.20;99.90;;;;;;5053586;28;20219;-61
2021/12/11 03:05:42;;;;;;;58.22;31.17;;;3.20;99.90;;;;;;5067917;28;20214;-60
2021/12/11 03:08:15;;;;;;;59.50;30.45;;;3.20;99.90;;;;;;5067376;28;20226;-61
2021/12/11 03:10:47;;;;;;;50.17;29.88;;;3.20;99.90;;;;;;5067398;28;20231;-61
2021/12/11 03:13:15;;;;;;;54.92;28.25;;;3.20;99.90;;;;;;5065801;28;20216;-60
2021/12/11 03:15:43;;;;;;;53.30;29.83;;;3.20;99.90;;;;;;5070937;28;20549;-61
2021/12/11 03:18:13;;;;;;;57.72;29.00;;;3.20;99.90;;;;;;5058189;28;20781;-61
2021/12/11 03:20:43;;;;;;;54.58;28.55;;;3.30;99.90;;;;;;5052483;28;20322;-61
2021/12/11 03:23:13;;;;;;;58.03;30.20;;;3.20;99.90;;;;;;5052755;28;20270;-61
2021/12/11 03:25:42;;;;;;;49.97;28.67;;;3.30;99.90;;;;;;5064107;28;20252;-61
2021/12/11 03:28:11;;;;;;;50.35;27.50;;;3.20;99.90;;;;;;5072100;28;20291;-61
2021/12/11 03:30:44;;;;;;;49.08;26.42;;;3.20;99.90;;;;;;5055687;28;20278;-60
2021/12/11 03:33:14;;;;;;;48.83;29.65;;;3.30;99.90;;;;;;5070781;28;20239;-60
2021/12/11 03:35:44;;;;;;;47.55;28.15;;;3.20;99.90;;;;;;5069605;28;20184;-61
2021/12/11 03:38:14;;;;;;;48.97;27.08;;;3.30;99.90;;;;;;5064862;28;20263;-61
2021/12/11 03:40:43;;;;;;;52.58;26.50;;;3.30;99.90;;;;;;5056248;28;20212;-61
2021/12/11 03:43:15;;;;;;;47.45;28.33;;;3.30;99.90;;;;;;5071063;28;20248;-61
2021/12/11 03:45:47;;;;;;;59.85;29.20;;;3.30;99.90;;;;;;5064122;28;20277;-61
2021/12/11 03:48:20;;;;;;;50.53;28.65;;;3.20;99.90;;;;;;5069741;28;20760;-61
2021/12/11 03:50:48;;;;;;;50.50;26.65;;;3.20;99.90;;;;;;5072811;28;20216;-61
2021/12/11 03:53:18;;;;;;;48.50;28.25;;;3.30;99.90;;;;;;5066954;28;20682;-61
2021/12/11 03:55:49;;;;;;;49.78;27.42;;;3.30;99.90;;;;;;5058618;28;20185;-61
2021/12/11 03:58:17;;;;;;;51.30;26.20;;;3.30;99.90;;;;;;5058383;28;21034;-60
2021/12/11 04:00:50;;;;;;;53.08;28.80;;;3.30;99.90;;;;;;5072135;28;20208;-61
2021/12/11 04:03:23;;;;;;;48.33;28.60;;;3.30;99.90;;;;;;5068944;28;20261;-61
2021/12/11 04:05:52;;;;;;;49.00;27.30;;;3.30;99.90;;;;;;5067569;28;20402;-61
2021/12/11 04:08:25;;;;;;;41.13;25.10;;;3.30;99.90;;;;;;5054450;28;20220;-61
2021/12/11 04:10:55;;;;;;;46.65;26.67;;;3.30;99.90;;;;;;5059854;28;20258;-61
2021/12/11 04:13:23;;;;;;;51.58;26.20;;;3.30;99.90;;;;;;5057201;28;20583;-62
2021/12/11 04:15:54;;;;;;;52.45;27.27;;;3.30;99.90;;;;;;5074088;28;20181;-61
2021/12/11 04:18:22;;;;;;;51.40;26.08;;;3.40;99.90;;;;;;5061296;28;20641;-61
2021/12/11 04:20:51;;;;;;;50.10;24.88;;;3.30;99.90;;;;;;5068634;28;20219;-61
2021/12/11 04:23:22;;;;;;;44.78;26.30;;;3.30;99.90;;;;;;5071514;28;20216;-61
2021/12/11 04:25:53;;;;;;;46.90;26.75;;;3.30;99.90;;;;;;5056050;28;20208;-61
2021/12/11 04:28:23;;;;;;;43.13;24.88;;;3.30;99.90;;;;;;5058544;28;20216;-62
2021/12/11 04:30:54;;;;;;;44.28;25.02;;;3.30;99.90;;;;;;5061089;28;20212;-61
2021/12/11 04:33:23;;;;;;;40.63;22.42;;;3.30;99.90;;;;;;5059449;28;20208;-61
2021/12/11 04:35:51;;;;;;;41.30;24.52;;;3.30;99.90;;;;;;5063573;28;20189;-61
2021/12/11 04:38:19;;;;;;;44.92;23.30;;;3.30;99.90;;;;;;5065533;28;20277;-61
2021/12/11 04:40:53;;;;;;;49.03;24.88;;;3.30;99.90;;;;;;5058310;28;20270;-61
2021/12/11 04:43:25;;;;;;;44.58;25.70;;;3.30;99.90;;;;;;5058064;28;20245;-61
2021/12/11 04:45:55;;;;;;;48.63;24.55;;;3.30;99.90;;;;;;5053716;28;20196;-61
2021/12/11 04:48:34;;;;;;;44.42;24.02;;;3.20;99.90;;;;;;5059703;28;20211;-60
2021/12/11 04:51:13;;;;;;;40.25;22.95;;;3.20;99.90;;;;;;5072290;28;20202;-61
2021/12/11 04:53:55;;;;;;;39.70;21.42;;;3.20;99.90;;;;;;5065897;28;20816;-61
2021/12/11 04:57:01;;;;;;;44.03;22.20;;;3.20;99.90;;;;;;5060738;28;20638;-60
2021/12/11 04:59:42;;;;;;;46.38;24.63;;;3.20;99.90;;;;;;5062690;28;20654;-61
2021/12/11 05:02:39;;;;;;;51.10;26.08;;;3.20;99.90;;;;;;5057770;28;20562;-60
2021/12/11 05:05:18;;;;;;;50.65;26.13;;;3.20;99.90;;;;;;5069388;28;20204;-60
2021/12/11 05:07:59;;;;;;;50.05;26.00;;;3.10;99.90;;;;;;5064064;28;20597;-61
2021/12/11 05:10:36;;;;;;;43.42;23.98;;;3.10;99.90;;;;;;5058211;28;20629;-60
2021/12/11 05:13:06;;;;;;;46.85;23.60;;;3.20;99.90;;;;;;5059004;28;20258;-61
2021/12/11 05:15:37;;;;;;;44.58;23.35;;;3.20;99.90;;;;;;5064708;28;20196;-60
2021/12/11 05:18:11;;;;;;;50.20;24.23;;;3.20;99.90;;;;;;5054410;28;20233;-61
2021/12/11 05:20:40;;;;;;;45.80;23.33;;;3.20;99.90;;;;;;5071934;28;20287;-61
2021/12/11 05:23:08;;;;;;;45.00;24.45;;;3.30;99.90;;;;;;5065448;28;20693;-61
2021/12/11 05:25:37;;;;;;;43.17;23.60;;;3.30;99.90;;;;;;5072280;28;20296;-61
2021/12/11 05:28:07;;;;;;;50.45;23.80;;;3.30;99.90;;;;;;5069989;28;20235;-61
2021/12/11 05:30:38;;;;;;;49.60;24.35;;;3.20;99.90;;;;;;5061940;28;20238;-60
2021/12/11 05:33:07;;;;;;;42.05;23.67;;;3.20;99.90;;;;;;5071712;28;20667;-61
2021/12/11 05:35:40;;;;;;;51.17;26.90;;;3.30;99.90;;;;;;5072671;28;20192;-60
2021/12/11 05:38:12;;;;;;;45.65;24.52;;;3.30;99.90;;;;;;5058868;28;20228;-61
2021/12/11 05:40:43;;;;;;;44.08;26.83;;;3.30;99.90;;;;;;5067752;28;20212;-61
2021/12/11 05:43:13;;;;;;;53.78;28.02;;;3.30;99.90;;;;;;5068506;28;20485;-61
2021/12/11 05:45:42;;;;;;;49.78;27.58;;;3.30;99.90;;;;;;5058574;28;20379;-60
2021/12/11 05:48:11;;;;;;;47.13;26.25;;;3.30;99.90;;;;;;5068247;28;20709;-61
2021/12/11 05:50:44;;;;;;;49.97;26.33;;;3.30;99.90;;;;;;5055367;28;20240;-61
2021/12/11 05:53:14;;;;;;;56.20;27.23;;;3.30;99.90;;;;;;5056838;28;20735;-61
2021/12/11 05:55:42;;;;;;;53.97;25.75;;;3.30;99.90;;;;;;5057572;28;20193;-61
2021/12/11 05:58:13;;;;;;;55.50;28.65;;;3.30;99.90;;;;;;5069390;28;20720;-61
2021/12/11 06:00:46;;;;;;;53.53;29.33;;;3.20;99.90;;;;;;5071665;28;20690;-60
2021/12/11 06:03:15;;;;;;;50.58;26.90;;;3.20;99.90;;;;;;5058658;28;20250;-61
2021/12/11 06:05:44;;;;;;;55.08;26.55;;;3.20;99.90;;;;;;5058826;28;20192;-60
2021/12/11 06:08:13;;;;;;;51.47;25.88;;;3.20;99.90;;;;;;5059323;28;20230;-60
2021/12/11 06:10:42;;;;;;;47.85;25.75;;;3.20;99.90;;;;;;5054302;28;20744;-60
2021/12/11 06:13:11;;;;;;;57.95;28.55;;;3.20;99.90;;;;;;5054655;28;20231;-62
2021/12/11 06:15:41;;;;;;;54.22;26.58;;;3.20;99.90;;;;;;5062732;28;20601;-61
2021/12/11 06:18:15;;;;;;;48.60;26.45;;;3.30;99.90;;;;;;5061172;28;20232;-61
2021/12/11 06:20:43;;;;;;;51.83;25.42;;;3.30;99.90;;;;;;5058413;28;20752;-61
2021/12/11 06:23:11;;;;;;;49.40;26.58;;;3.30;99.90;;;;;;5055825;28;20252;-61
2021/12/11 06:25:39;;;;;;;46.15;26.55;;;3.40;99.90;;;;;;5053287;28;20195;-61
2021/12/11 06:28:08;;;;;;;53.30;26.30;;;3.30;99.90;;;;;;5053190;28;20636;-60
2021/12/11 06:30:38;;;;;;;49.85;24.17;;;3.30;99.90;;;;;;5064462;28;20215;-61
2021/12/11 06:33:08;;;;;;;41.35;23.92;;;3.40;99.90;;;;;;5063613;28;20220;-61
2021/12/11 06:35:40;;;;;;;45.80;24.75;;;3.40;99.90;;;;;;5052301;28;20184;-61
2021/12/11 06:38:11;;;;;;;42.13;22.85;;;3.40;99.90;;;;;;5065280;28;20258;-60
2021/12/11 06:40:40;;;;;;;46.70;23.85;;;3.40;99.90;;;;;;5066649;28;20765;-61
2021/12/11 06:43:08;;;;;;;51.25;24.60;;;3.40;99.90;;;;;;5057794;28;20298;-61
2021/12/11 06:45:37;;;;;;;44.50;23.95;;;3.40;99.90;;;;;;5064685;28;20557;-61
2021/12/11 06:48:07;;;;;;;39.72;22.88;;;3.40;99.90;;;;;;5062153;28;20791;-61
2021/12/11 06:50:35;;;;;;;44.15;23.98;;;3.50;99.90;;;;;;5065190;28;20242;-61
2021/12/11 06:53:08;;;;;;;37.28;20.88;;;3.50;99.90;;;;;;5056531;28;20281;-60
2021/12/11 06:55:37;;;;;;;49.83;22.42;;;3.50;99.90;;;;;;5057366;28;20191;-61
2021/12/11 06:58:05;;;;;;;39.05;21.35;;;3.50;99.90;;;;;;5058692;28;20220;-60
2021/12/11 07:00:34;;;;;;;43.88;23.83;;;3.50;99.90;;;;;;5066357;28;20299;-61
2021/12/11 07:03:02;;;;;;;50.80;22.33;;;3.50;99.90;;;;;;5064589;28;20220;-61
2021/12/11 07:05:33;;;;;;;38.28;19.90;;;3.50;99.90;;;;;;5070165;28;20191;-61
2021/12/11 07:08:04;;;;;;;45.60;23.70;;;3.50;99.90;;;;;;5058088;28;20224;-60
2021/12/11 07:10:34;;;;;;;44.70;22.42;;;3.50;99.90;;;;;;5058517;28;20219;-61
2021/12/11 07:13:02;;;;;;;47.25;22.08;;;3.50;99.90;;;;;;5062783;28;20211;-61
2021/12/11 07:15:30;;;;;;;47.95;23.05;;;3.50;99.90;;;;;;5064141;28;20662;-60
2021/12/11 07:17:58;;;;;;;41.22;21.65;;;3.50;99.90;;;;;;5077485;28;20220;-61
2021/12/11 07:20:27;;;;;;;42.90;22.58;;;3.50;99.90;;;;;;5077197;28;20307;-60
2021/12/11 07:22:57;;;;;;;41.53;21.15;;;3.50;99.90;;;;;;5073360;28;20219;-60
2021/12/11 07:25:30;;;;;;;42.15;21.90;;;3.50;99.90;;;;;;5059888;28;20200;-60
2021/12/11 07:28:03;;;;;;;45.35;21.58;;;3.50;99.90;;;;;;5056039;28;20274;-60
2021/12/11 07:30:33;;;;;;;41.13;21.58;;;3.60;99.90;;;;;;5070931;28;20261;-61
2021/12/11 07:33:04;;;;;;;41.75;21.48;;;3.50;99.90;;;;;;5072974;28;20219;-60
2021/12/11 07:35:33;;;;;;;37.78;20.52;;;3.60;99.90;;;;;;5077953;28;20196;-60
2021/12/11 07:38:04;;;;;;;46.75;21.10;;;3.60;99.90;;;;;;5064244;28;20261;-61
2021/12/11 07:40:36;;;;;;;44.90;23.33;;;3.60;99.90;;;;;;5076226;28;20215;-61
2021/12/11 07:43:05;;;;;;;38.40;21.10;;;3.60;99.90;;;;;;5064492;28;20220;-60
2021/12/11 07:45:35;;;;;;;36.63;20.35;;;3.60;99.90;;;;;;5070171;28;20658;-61
2021/12/11 07:48:04;;;;;;;33.38;20.75;;;3.60;99.90;;;;;;5076064;28;20227;-61
2021/12/11 07:50:33;;;;;;;39.55;20.00;;;3.60;99.90;;;;;;5075941;28;20212;-61
2021/12/11 07:53:05;;;;;;;42.00;22.92;;;3.60;99.90;;;;;;5065787;27;20216;-60
2021/12/11 07:55:34;;;;;;;33.50;19.77;;;3.60;99.90;;;;;;5074830;28;20237;-61
2021/12/11 07:58:04;;;;;;;36.20;19.02;;;3.60;99.90;;;;;;5061775;27;20223;-61
2021/12/11 08:00:33;;;;;;;35.55;18.33;;;3.60;99.90;;;;;;5057713;28;20216;-61
2021/12/11 08:03:03;;;;;;;32.00;19.35;;;3.60;99.90;;;;;;5075014;28;20223;-61
2021/12/11 08:05:31;;;;;;;31.20;17.30;;;3.60;99.90;;;;;;5071257;28;20199;-61
2021/12/11 08:08:01;;;;;;;35.55;18.75;;;3.70;99.90;;;;;;5057673;28;20227;-62
2021/12/11 08:10:32;;;;;;;33.40;18.15;;;3.60;99.90;;;;;;5059153;28;20249;-61
2021/12/11 08:13:03;;;;;;;31.27;17.10;;;3.70;99.90;;;;;;5073572;28;20223;-60
2021/12/11 08:15:32;;;;;;;33.15;18.42;;;3.70;99.90;;;;;;5055683;28;20204;-62
2021/12/11 08:18:01;;;;;;;27.85;15.43;;;3.70;99.90;;;;;;5059916;27;20244;-60
2021/12/11 08:20:32;;;;;;;32.50;17.88;;;3.80;99.90;;;;;;5059822;28;20257;-61
2021/12/11 08:23:01;;;;;;;26.98;15.57;;;3.80;99.90;;;;;;5068548;28;20228;-61
2021/12/11 08:25:33;;;;;;;30.98;16.02;;;3.80;99.90;;;;;;5065324;28;20879;-61
2021/12/11 08:28:02;;;;;;;27.30;14.23;;;3.80;99.90;;;;;;5064495;28;20223;-61
2021/12/11 08:30:33;;;;;;;23.10;14.75;;;3.80;99.90;;;;;;5057878;28;20208;-61
2021/12/11 08:33:01;;;;;;;28.42;16.20;;;3.80;99.90;;;;;;5064238;28;20615;-61
2021/12/11 08:35:29;;;;;;;26.15;15.75;;;3.80;99.90;;;;;;5067325;28;20193;-61
2021/12/11 08:37:58;;;;;;;27.77;14.98;;;3.80;99.90;;;;;;5064161;28;20257;-61
2021/12/11 08:40:32;;;;;;;25.30;14.10;;;3.90;99.90;;;;;;5072293;28;20216;-61
2021/12/11 08:43:02;;;;;;;24.52;13.70;;;3.90;99.90;;;;;;5068812;27;20220;-60
2021/12/11 08:45:45;;;;;;;22.83;13.05;;;3.90;99.90;;;;;;5061614;28;20200;-60
2021/12/11 08:48:15;;;;;;;21.58;14.05;;;4.00;99.90;;;;;;5054502;28;20238;-60
2021/12/11 08:50:47;;;;;;;22.10;11.55;;;4.00;99.90;;;;;;5060845;28;20224;-61
2021/12/11 08:53:16;;;;;;;23.38;12.15;;;4.00;99.90;;;;;;5072687;28;20231;-61
2021/12/11 08:55:51;;;;;;;20.80;12.57;;;4.00;99.90;;;;;;5069481;28;20278;-61
2021/12/11 08:58:20;;;;;;;20.27;12.15;;;4.10;99.90;;;;;;5057798;28;20215;-60
2021/12/11 09:00:51;;;;;;;20.58;11.88;;;4.10;99.90;;;;;;5072220;28;20333;-61
2021/12/11 09:03:26;;;;;;;20.63;11.50;;;4.00;99.90;;;;;;5073021;28;20219;-61
2021/12/11 09:05:58;;;;;;;20.13;12.52;;;4.10;99.90;;;;;;5057058;28;20708;-61
2021/12/11 09:08:30;;;;;;;16.77;11.90;;;4.00;99.90;;;;;;5060151;28;20579;-61
2021/12/11 09:11:04;;;;;;;16.30;10.38;;;4.10;99.90;;;;;;5066686;28;20214;-61
2021/12/11 09:13:36;;;;;;;13.32;8.55;;;4.10;99.90;;;;;;5062027;28;20220;-61
2021/12/11 09:16:11;;;;;;;16.70;10.10;;;4.20;99.90;;;;;;5061480;28;20208;-61
2021/12/11 09:18:44;;;;;;;15.07;9.63;;;4.20;99.90;;;;;;5059306;28;20210;-61
2021/12/11 09:21:20;;;;;;;12.25;8.27;;;4.40;99.90;;;;;;5061851;28;20192;-62
2021/12/11 09:23:52;;;;;;;14.13;8.95;;;4.40;99.90;;;;;;5070503;28;20211;-61
2021/12/11 09:26:25;;;;;;;13.55;8.82;;;4.50;99.90;;;;;;5072460;28;20684;-60
2021/12/11 09:28:59;;;;;;;16.80;11.60;;;4.50;99.90;;;;;;5056155;28;20270;-60
2021/12/11 09:31:30;;;;;;;20.63;11.65;;;4.50;99.90;;;;;;5053335;28;20593;-60
2021/12/11 09:34:03;;;;;;;18.60;11.48;;;4.50;99.90;;;;;;5052037;28;20226;-61
2021/12/11 09:36:36;;;;;;;19.60;12.68;;;4.60;99.90;;;;;;5067678;28;20719;-60
2021/12/11 09:39:10;;;;;;;22.20;13.90;;;4.60;99.90;;;;;;5059598;28;20690;-61
2021/12/11 09:41:38;;;;;;;29.33;14.85;;;4.70;99.90;;;;;;5064026;28;20248;-60
2021/12/11 09:44:11;;;;;;;23.63;14.52;;;4.80;99.90;;;;;;5064860;28;20220;-61
2021/12/11 09:46:43;;;;;;;26.33;13.80;;;4.90;99.90;;;;;;5066340;28;20191;-60
2021/12/11 09:49:14;;;;;;;28.30;14.85;;;4.90;99.90;;;;;;5069135;28;20223;-60
2021/12/11 09:51:46;;;;;;;26.23;14.05;;;4.90;99.90;;;;;;5063842;28;20188;-60
2021/12/11 09:54:17;;;;;;;23.65;15.18;;;4.90;99.90;;;;;;5055121;28;20407;-61
2021/12/11 09:56:52;;;;;;;28.73;15.35;;;4.90;99.90;;;;;;5057474;28;20200;-61
2021/12/11 09:59:23;;;;;;;32.58;16.45;;;4.90;99.90;;;;;;5070827;28;20632;-60
2021/12/11 10:01:57;;;;;;;30.13;16.35;;;5.00;99.90;;;;;;5071132;28;20200;-61
2021/12/11 10:04:32;;;;;;;27.45;15.25;;;5.00;99.90;;;;;;5063770;28;20215;-60
2021/12/11 10:07:25;;;;;;;27.85;17.40;;;5.00;99.90;;;;;;5067326;28;20179;-61
2021/12/11 10:09:58;;;;;;;36.08;15.50;;;5.10;99.90;;;;;;5071740;28;20830;-61
2021/12/11 10:12:29;;;;;;;29.95;15.80;;;5.30;99.90;;;;;;5069668;28;20684;-60
2021/12/11 10:15:02;;;;;;;30.15;15.27;;;5.30;99.90;;;;;;5058473;28;20196;-60
2021/12/11 10:17:37;;;;;;;25.05;14.73;;;5.30;99.90;;;;;;5062339;28;20220;-60
2021/12/11 10:20:10;;;;;;;31.92;14.93;;;5.30;99.90;;;;;;5053079;28;20207;-60
2021/12/11 10:22:41;;;;;;;26.55;15.15;;;5.20;99.90;;;;;;5052271;28;20220;-60
2021/12/11 10:25:16;;;;;;;29.75;13.55;;;5.20;99.90;;;;;;5068758;28;20187;-60
2021/12/11 10:27:45;;;;;;;25.33;15.40;;;5.20;99.90;;;;;;5071118;28;20230;-60
2021/12/11 10:30:19;;;;;;;25.15;14.10;;;5.30;99.90;;;;;;5052524;28;20220;-57
2021/12/11 10:32:47;;;;;;;26.45;16.73;;;5.30;99.90;;;;;;5052058;28;20235;-57
2021/12/11 10:35:19;;;;;;;26.48;14.10;;;5.40;99.90;;;;;;5051638;28;20239;-59
2021/12/11 10:37:47;;;;;;;19.77;13.50;;;5.40;99.90;;;;;;5051747;28;20220;-58
2021/12/11 11:09:20;;;;;;;18.40;13.20;;;6.10;99.90;;;;;;5065478;28;20631;-72
2021/12/11 11:11:50;;;;;;;20.75;11.32;;;6.10;99.90;;;;;;5040977;28;20719;-70
2021/12/11 11:14:19;;;;;;;12.68;10.32;;;6.00;99.90;;;;;;5043200;28;20262;-71
2021/12/11 11:26:46;;;;;;;6.13;4.90;;;6.20;99.90;;;;;;5129075;27;20569;-63
2021/12/11 11:29:20;;;;;;;10.60;5.85;;;6.00;99.90;;;;;;5071894;27;20242;-65
2021/12/11 11:31:50;;;;;;;8.32;5.80;;;5.80;99.90;;;;;;5067841;28;20458;-63
2021/12/11 11:34:22;;;;;;;6.95;5.55;;;5.70;99.90;;;;;;5067493;28;20212;-62
2021/12/11 11:36:52;;;;;;;10.65;4.78;;;5.50;99.90;;;;;;5068219;28;20179;-62
2021/12/11 11:39:23;;;;;;;11.85;5.72;;;5.40;99.90;;;;;;5066567;28;20212;-62
2021/12/11 11:41:56;;;;;;;7.70;5.50;;;5.40;99.90;;;;;;5069011;28;20215;-65
2021/12/11 11:44:28;;;;;;;7.05;4.60;;;5.30;99.90;;;;;;5066695;28;20229;-61
2021/12/11 11:47:04;;;;;;;7.15;5.07;;;5.30;99.90;;;;;;5050764;28;20242;-62
2021/12/11 11:49:34;;;;;;;8.50;5.70;;;5.30;99.90;;;;;;5068268;28;20251;-62
2021/12/11 11:52:08;;;;;;;6.97;4.75;;;5.20;99.90;;;;;;5068113;28;20736;-63
2021/12/11 11:54:39;;;;;;;9.77;5.70;;;5.20;99.90;;;;;;5065974;28;20438;-63
2021/12/11 11:57:13;;;;;;;7.10;5.13;;;5.20;99.90;;;;;;5068531;28;20249;-61
2021/12/11 11:59:42;;;;;;;8.48;4.80;;;5.20;99.90;;;;;;5064633;28;20207;-62
2021/12/11 12:02:14;;;;;;;6.43;4.93;;;5.20;99.90;;;;;;5067861;28;20188;-66
2021/12/11 12:04:43;;;;;;;7.03;4.75;;;5.20;99.90;;;;;;5067010;28;20295;-61
2021/12/11 12:07:12;;;;;;;7.25;5.72;;;5.20;99.90;;;;;;5066672;28;20192;-62
2021/12/11 12:09:44;;;;;;;9.07;5.22;;;5.20;99.90;;;;;;5067914;28;20265;-62
2021/12/11 12:12:16;;;;;;;6.43;4.50;;;5.20;99.90;;;;;;5067882;28;20238;-62
2021/12/11 12:14:47;;;;;;;9.60;5.40;;;5.20;99.90;;;;;;5066663;28;20223;-63
2021/12/11 12:17:21;;;;;;;5.90;4.57;;;5.10;99.90;;;;;;5068702;28;20223;-61
2021/12/11 12:19:51;;;;;;;11.43;4.60;;;5.10;99.90;;;;;;5067848;28;20191;-61
2021/12/11 12:22:21;;;;;;;6.70;4.53;;;5.10;99.90;;;;;;5065941;28;20457;-63
2021/12/11 12:24:52;;;;;;;9.82;5.00;;;5.10;99.90;;;;;;5066003;28;20247;-62
2021/12/11 12:27:29;;;;;;;9.52;5.35;;;5.10;99.90;;;;;;5067720;28;20223;-60
2021/12/11 12:30:00;;;;;;;6.60;4.68;;;5.20;99.90;;;;;;5064219;28;20192;-62
2021/12/11 12:32:32;;;;;;;8.98;3.90;;;5.20;99.90;;;;;;5066800;28;21033;-61
2021/12/11 12:35:07;;;;;;;7.72;5.10;;;5.20;99.90;;;;;;5067714;28;20288;-62
2021/12/11 12:37:39;;;;;;;5.35;4.78;;;5.20;99.90;;;;;;5056367;28;20212;-60
2021/12/11 12:40:11;;;;;;;8.82;4.63;;;5.20;99.90;;;;;;5054395;28;20428;-62
2021/12/11 12:42:53;;;;;;;6.10;4.47;;;5.20;99.90;;;;;;5053997;28;20224;-63
2021/12/11 12:45:30;;;;;;;8.27;4.47;;;5.20;99.90;;;;;;5051627;28;20208;-62
2021/12/11 12:48:03;;;;;;;9.13;4.10;;;5.20;99.90;;;;;;5042276;28;20687;-61
2021/12/11 12:50:36;;;;;;;4.80;4.40;;;5.20;99.90;;;;;;5054121;28;20192;-62
2021/12/11 12:53:06;;;;;;;7.53;4.10;;;5.10;99.90;;;;;;5048856;28;20217;-61
2021/12/11 12:55:50;;;;;;;6.95;5.28;;;5.10;99.90;;;;;;5052123;28;20243;-62
2021/12/11 12:58:25;;;;;;;7.63;3.97;;;5.10;99.90;;;;;;5052455;28;20243;-61
2021/12/11 13:00:57;;;;;;;5.13;4.18;;;5.10;99.90;;;;;;5053062;28;20652;-61
2021/12/11 13:03:34;;;;;;;11.93;4.00;;;5.10;99.90;;;;;;5051157;28;20212;-61
2021/12/11 13:06:10;;;;;;;4.78;4.28;;;5.10;99.90;;;;;;5052435;28;20564;-61
2021/12/11 13:08:44;;;;;;;4.20;3.80;;;5.10;99.90;;;;;;5051738;28;20431;-61
2021/12/11 13:11:24;;;;;;;5.57;3.63;;;5.10;99.90;;;;;;5050557;28;20227;-60
2021/12/11 13:13:59;;;;;;;4.43;3.50;;;5.10;99.90;;;;;;5051530;28;20224;-61
2021/12/11 13:16:33;;;;;;;7.10;4.00;;;5.10;99.90;;;;;;5056973;28;20212;-62
2021/12/11 13:22:12;;;;;;;7.15;4.25;;;5.10;99.90;;;;;;5052515;28;20192;-62
2021/12/11 13:24:43;;;;;;;6.65;4.55;;;5.10;99.90;;;;;;5056289;28;20220;-61
2021/12/11 13:27:15;;;;;;;5.72;4.25;;;5.10;99.90;;;;;;5053403;28;20220;-60
2021/12/11 13:29:52;;;;;;;4.90;4.40;;;5.10;99.90;;;;;;5046927;28;20203;-61
2021/12/11 13:32:23;;;;;;;7.75;3.60;;;5.10;99.90;;;;;;5050298;28;20188;-63
2021/12/11 13:35:24;;;;;;;6.50;3.60;;;5.10;99.90;;;;;;5051561;28;20208;-61
2021/12/11 13:37:54;;;;;;;4.82;3.67;;;5.10;99.90;;;;;;5044799;28;20216;-62
2021/12/11 13:40:26;;;;;;;5.65;3.03;;;5.10;99.90;;;;;;5050575;28;20181;-61
2021/12/11 13:43:04;;;;;;;4.50;3.25;;;5.10;99.90;;;;;;5052283;28;20217;-61
2021/12/11 13:45:52;;;;;;;3.75;3.42;;;5.10;99.90;;;;;;5051907;28;20220;-62
2021/12/11 13:48:25;;;;;;;5.63;3.55;;;5.10;99.90;;;;;;5051045;28;20687;-61